Time;durP1;ratioP1;P1;durP2;ratioP2;P2;SDS_P1;SDS_P2;PMS_P1;PMS_P2;Temp;Humidity;BMP_temperature;BMP_pressure;BME280_temperature;BME280_humidity;BME280_pressure;Samples;Min_cycle;Max_cycle;Signal;HPM_P1;HPM_P2
2023/12/14 00:00:22;;;;;;;12.73;8.77;;;;;;;10.25;87.44;100680.97;5068035;28;20067;-82
2023/12/14 00:02:48;;;;;;;13.23;8.88;;;;;;;10.23;87.55;100685.22;5065896;28;20487;-83
2023/12/14 00:05:13;;;;;;;10.93;7.93;;;;;;;10.28;86.94;100695.06;5061242;28;20657;-83
2023/12/14 00:07:39;;;;;;;12.70;8.25;;;;;;;10.28;87.46;100699.38;5068386;28;20081;-83
2023/12/14 00:10:05;;;;;;;11.75;7.88;;;;;;;10.13;87.55;100670.75;5068948;28;20024;-82
2023/12/14 00:12:31;;;;;;;13.88;8.27;;;;;;;10.12;86.94;100659.44;5067557;28;20306;-83
2023/12/14 00:14:58;;;;;;;11.55;7.75;;;;;;;10.23;87.28;100678.28;5049617;28;20020;-83
2023/12/14 00:17:24;;;;;;;11.10;8.02;;;;;;;10.03;87.25;100639.75;5054538;28;20025;-83
2023/12/14 00:19:50;;;;;;;11.13;7.65;;;;;;;10.22;87.27;100679.06;5053373;28;20087;-82
2023/12/14 00:22:15;;;;;;;11.98;8.15;;;;;;;10.15;87.18;100662.19;5068254;28;20029;-83
2023/12/14 00:24:41;;;;;;;11.70;8.25;;;;;;;9.82;87.33;100598.69;5060196;28;20039;-83
2023/12/14 00:27:07;;;;;;;11.43;7.80;;;;;;;10.10;87.27;100644.50;5062130;28;20056;-83
2023/12/14 00:29:33;;;;;;;12.23;7.93;;;;;;;9.98;86.87;100627.38;5066188;28;20041;-84
2023/12/14 00:31:58;;;;;;;12.65;7.43;;;;;;;10.12;86.91;100651.59;5050789;28;20024;-83
2023/12/14 00:34:24;;;;;;;12.07;7.85;;;;;;;10.22;87.16;100670.34;5077646;28;20020;-84
2023/12/14 00:36:50;;;;;;;12.35;7.60;;;;;;;10.17;87.44;100664.91;5082468;28;20085;-84
2023/12/14 00:39:15;;;;;;;11.25;7.22;;;;;;;10.02;87.16;100635.38;5068412;28;20035;-84
2023/12/14 00:41:41;;;;;;;11.40;7.57;;;;;;;10.12;87.16;100650.72;5071504;28;20047;-83
2023/12/14 00:44:07;;;;;;;10.50;7.30;;;;;;;9.95;87.14;100626.31;5066205;28;20032;-84
2023/12/14 00:46:32;;;;;;;11.43;7.47;;;;;;;10.23;87.07;100664.34;5053074;28;20572;-84
2023/12/14 00:48:58;;;;;;;10.13;7.30;;;;;;;10.21;86.91;100663.34;5046369;28;20035;-83
2023/12/14 00:51:23;;;;;;;12.02;8.05;;;;;;;10.21;87.19;100664.25;5068576;28;20032;-84
2023/12/14 00:53:49;;;;;;;12.75;8.57;;;;;;;10.24;87.07;100671.34;5064890;28;20083;-84
2023/12/14 00:56:15;;;;;;;10.63;7.30;;;;;;;10.33;87.17;100687.53;5057335;28;20169;-84
2023/12/14 00:58:40;;;;;;;11.88;7.93;;;;;;;10.24;87.12;100673.94;5070002;28;20024;-84
2023/12/14 01:01:06;;;;;;;11.98;7.72;;;;;;;10.35;86.68;100686.81;5062914;28;20039;-84
2023/12/14 01:03:32;;;;;;;11.48;7.72;;;;;;;10.19;87.12;100652.81;5067510;28;20040;-83
2023/12/14 01:05:58;;;;;;;10.80;7.47;;;;;;;10.01;87.07;100624.03;5025243;28;20055;-83
2023/12/14 01:08:23;;;;;;;11.40;7.55;;;;;;;10.08;86.92;100631.38;5069130;28;20430;-83
2023/12/14 01:10:49;;;;;;;10.20;7.63;;;;;;;10.28;86.82;100661.13;5062000;28;20143;-83
2023/12/14 01:13:15;;;;;;;11.98;7.93;;;;;;;10.14;87.28;100633.44;5066514;28;20025;-83
2023/12/14 01:15:41;;;;;;;11.52;7.75;;;;;;;10.13;86.88;100621.19;5048932;28;20036;-83
2023/12/14 01:18:06;;;;;;;12.02;7.35;;;;;;;10.01;87.06;100613.59;5068389;28;20028;-83
2023/12/14 01:20:32;;;;;;;9.93;7.10;;;;;;;10.23;87.20;100648.69;5057305;28;20509;-83
2023/12/14 01:22:58;;;;;;;11.70;7.70;;;;;;;10.29;87.21;100656.84;5060508;28;20563;-83
2023/12/14 01:25:24;;;;;;;9.23;6.80;;;;;;;10.25;87.23;100640.09;5085210;28;20039;-83
2023/12/14 01:27:49;;;;;;;10.48;7.03;;;;;;;9.97;87.16;100594.28;5076610;28;20016;-84
2023/12/14 01:30:15;;;;;;;11.43;7.53;;;;;;;10.23;86.90;100625.19;5072610;28;20116;-83
2023/12/14 01:32:40;;;;;;;11.25;7.60;;;;;;;10.23;87.13;100631.31;5079111;28;20081;-83
2023/12/14 01:35:06;;;;;;;11.35;7.10;;;;;;;10.36;86.93;100646.81;5072443;28;20025;-83
2023/12/14 01:37:32;;;;;;;10.20;7.07;;;;;;;10.28;87.13;100632.44;5049716;28;20054;-83
2023/12/14 01:39:58;;;;;;;9.77;6.38;;;;;;;10.22;86.90;100620.78;5025932;28;20469;-83
2023/12/14 01:42:23;;;;;;;9.63;6.82;;;;;;;10.40;86.84;100640.06;5061087;28;20025;-83
2023/12/14 01:44:49;;;;;;;10.73;7.00;;;;;;;10.39;87.02;100625.19;5068962;28;20021;-83
2023/12/14 01:47:15;;;;;;;10.38;7.45;;;;;;;10.39;86.92;100627.81;5066215;28;20025;-83
2023/12/14 01:49:41;;;;;;;10.32;7.05;;;;;;;10.32;86.84;100623.09;5071562;28;20500;-84
2023/12/14 01:52:07;;;;;;;;;;;;;;;10.38;87.11;100632.13;5055626;28;20024;-84
2023/12/14 01:54:33;;;;;;;11.85;7.25;;;;;;;10.37;87.28;100627.75;5056695;28;19923;-84
2023/12/14 01:56:59;;;;;;;;;;;;;;;10.39;86.93;100639.16;5055748;28;20025;-83
2023/12/14 01:59:24;;;;;;;9.75;6.78;;;;;;;10.41;86.95;100640.94;5059780;28;19942;-84
2023/12/14 02:01:55;;;;;;;12.18;7.20;;;;;;;10.35;86.81;100625.84;5072037;28;20035;-83
2023/12/14 02:04:23;;;;;;;10.63;7.10;;;;;;;10.25;86.68;100603.56;5033576;28;20059;-84
2023/12/14 02:06:49;;;;;;;9.93;6.70;;;;;;;10.43;86.68;100647.13;5074354;28;20021;-84
2023/12/14 02:09:15;;;;;;;10.10;6.70;;;;;;;10.32;86.96;100626.59;5055260;28;20028;-84
2023/12/14 02:11:41;;;;;;;9.55;6.55;;;;;;;10.29;86.52;100626.44;5046610;28;20733;-83
2023/12/14 02:14:09;;;;;;;9.27;6.32;;;;;;;10.40;86.62;100642.66;5064927;28;20453;-84
2023/12/14 02:16:35;;;;;;;9.85;6.57;;;;;;;10.46;86.48;100635.16;5052344;28;20064;-84
2023/12/14 02:19:00;;;;;;;9.85;6.68;;;;;;;10.18;86.92;100601.44;5038658;28;20112;-84
2023/12/14 02:21:26;;;;;;;11.05;7.10;;;;;;;10.36;86.49;100632.88;5041991;28;20029;-83
2023/12/14 02:23:52;;;;;;;11.23;7.03;;;;;;;10.27;86.50;100599.34;5042959;28;20025;-83
2023/12/14 02:26:17;;;;;;;9.85;6.80;;;;;;;10.42;86.58;100630.59;5071919;28;20024;-84
2023/12/14 02:28:43;;;;;;;9.93;6.82;;;;;;;10.48;86.63;100630.03;5069549;28;20689;-83
2023/12/14 02:31:09;;;;;;;9.75;6.75;;;;;;;10.04;86.92;100558.97;5056491;28;20093;-83
2023/12/14 02:33:35;;;;;;;9.68;6.82;;;;;;;10.46;86.89;100626.44;5051357;28;20053;-83
2023/12/14 02:36:01;;;;;;;8.90;6.22;;;;;;;10.18;86.68;100567.50;5075353;28;20020;-83
2023/12/14 02:38:26;;;;;;;9.77;6.40;;;;;;;10.45;86.47;100617.69;5071426;28;20032;-83
2023/12/14 02:40:52;;;;;;;9.73;6.60;;;;;;;10.51;86.41;100618.00;5071821;28;20086;-83
2023/12/14 02:43:19;;;;;;;9.82;6.65;;;;;;;10.47;86.36;100613.44;5053005;28;20051;-83
2023/12/14 02:45:45;;;;;;;10.10;6.47;;;;;;;10.45;86.62;100611.56;5051971;28;20535;-83
2023/12/14 02:48:11;;;;;;;9.02;6.63;;;;;;;10.43;86.52;100616.69;5071352;28;20064;-83
2023/12/14 02:50:37;;;;;;;9.45;6.35;;;;;;;10.44;86.90;100613.28;5069952;28;20056;-83
2023/12/14 02:53:03;;;;;;;9.70;6.57;;;;;;;10.37;86.64;100606.88;5072806;28;20518;-83
2023/12/14 02:55:29;;;;;;;8.60;6.18;;;;;;;10.45;86.63;100612.47;5052999;28;20812;-83
2023/12/14 02:57:54;;;;;;;8.43;6.07;;;;;;;10.46;86.50;100610.78;5063683;28;20072;-83
2023/12/14 03:00:20;;;;;;;9.00;6.47;;;;;;;10.52;86.60;100625.03;5049119;28;20089;-84
2023/12/14 03:02:46;;;;;;;8.00;5.90;;;;;;;10.13;86.45;100549.00;5053759;28;20499;-84
2023/12/14 03:05:12;;;;;;;9.43;6.35;;;;;;;10.22;86.56;100579.03;5052128;28;20036;-84
2023/12/14 03:07:37;;;;;;;10.40;6.90;;;;;;;10.50;86.97;100616.22;5047669;28;20033;-84
2023/12/14 03:10:04;;;;;;;9.93;6.82;;;;;;;10.44;86.42;100601.97;5037288;28;20427;-84
2023/12/14 03:12:29;;;;;;;8.02;5.82;;;;;;;10.57;86.52;100628.75;5064650;28;20036;-83
2023/12/14 03:14:56;;;;;;;8.38;6.15;;;;;;;10.42;86.17;100607.09;5036247;28;20040;-83
2023/12/14 03:17:21;;;;;;;;;;;;;;;10.56;86.46;100634.81;5060873;28;20033;-82
2023/12/14 03:19:47;;;;;;;8.05;5.95;;;;;;;10.47;86.97;100621.28;5065450;28;20300;-82
2023/12/14 03:22:13;;;;;;;9.70;6.32;;;;;;;10.57;86.54;100631.38;5047200;28;20487;-82
2023/12/14 03:24:39;;;;;;;7.80;5.65;;;;;;;10.49;86.58;100601.38;5059349;28;20047;-84
2023/12/14 03:27:05;;;;;;;8.63;5.97;;;;;;;10.38;86.46;100589.47;5067686;28;20028;-83
2023/12/14 03:29:30;;;;;;;;;;;;;;;10.61;86.47;100622.00;5064863;28;20040;-84
2023/12/14 03:31:57;;;;;;;9.77;6.82;;;;;;;10.56;86.78;100628.69;5063706;28;19940;-82
2023/12/14 03:34:23;;;;;;;8.48;6.47;;;;;;;10.52;86.70;100618.88;5066279;28;20462;-82
2023/12/14 03:36:48;;;;;;;8.43;5.90;;;;;;;10.44;86.18;100608.06;5050641;28;20028;-82
2023/12/14 03:39:16;;;;;;;8.85;6.22;;;;;;;10.64;86.45;100642.13;5069482;28;20063;-82
2023/12/14 03:41:42;;;;;;;8.73;6.03;;;;;;;10.64;86.07;100642.13;5066489;28;20059;-82
2023/12/14 03:44:07;;;;;;;;;;;;;;;10.68;86.26;100639.75;5050250;28;20032;-82
2023/12/14 03:46:34;;;;;;;8.10;5.80;;;;;;;10.53;86.32;100618.09;5071012;28;20298;-83
2023/12/14 03:49:00;;;;;;;8.02;5.60;;;;;;;10.57;86.12;100618.31;5059859;28;20033;-83
2023/12/14 03:51:26;;;;;;;9.38;6.00;;;;;;;10.64;86.42;100623.88;5068238;28;20029;-83
2023/12/14 03:53:51;;;;;;;8.02;5.78;;;;;;;10.38;86.19;100577.31;5058774;28;20671;-83
2023/12/14 03:56:17;;;;;;;7.78;5.55;;;;;;;10.55;86.59;100606.00;5052573;28;20115;-83
2023/12/14 03:58:43;;;;;;;7.95;5.45;;;;;;;10.55;86.15;100606.00;5066381;28;20036;-83
2023/12/14 04:01:18;;;;;;;7.85;5.60;;;;;;;10.62;86.14;100615.06;5052200;28;20041;-83
2023/12/14 04:03:44;;;;;;;7.70;5.55;;;;;;;10.72;85.76;100633.88;5068053;28;20535;-83
2023/12/14 04:06:11;;;;;;;8.25;5.97;;;;;;;10.70;85.92;100640.75;5051592;28;20032;-83
2023/12/14 04:08:37;;;;;;;8.05;5.60;;;;;;;10.70;85.76;100630.28;5072324;28;20036;-83
2023/12/14 04:11:03;;;;;;;7.20;5.53;;;;;;;10.70;85.88;100625.06;5051193;28;20414;-83
2023/12/14 04:13:28;;;;;;;8.20;5.50;;;;;;;10.75;85.78;100638.34;5070391;28;20055;-85
2023/12/14 04:15:54;;;;;;;7.15;5.30;;;;;;;10.55;85.60;100606.00;5051160;28;20035;-83
2023/12/14 04:18:20;;;;;;;8.02;5.30;;;;;;;10.43;85.81;100593.22;5038347;28;20041;-84
2023/12/14 04:20:45;;;;;;;9.20;5.80;;;;;;;10.49;85.96;100609.19;5052457;28;20028;-84
2023/12/14 04:23:11;;;;;;;7.95;5.57;;;;;;;10.62;85.66;100629.00;5077674;28;20036;-85
2023/12/14 04:25:37;;;;;;;7.97;5.93;;;;;;;10.58;86.12;100624.44;5046699;28;20033;-85
2023/12/14 04:28:02;;;;;;;7.80;5.78;;;;;;;10.63;86.00;100635.16;5063990;28;20037;-85
2023/12/14 04:30:28;;;;;;;8.05;5.68;;;;;;;10.48;85.62;100612.63;5034295;28;20052;-84
2023/12/14 04:32:54;;;;;;;7.93;5.78;;;;;;;10.52;86.11;100616.28;5039432;28;20041;-84
2023/12/14 04:35:22;;;;;;;6.70;5.07;;;;;;;10.75;86.08;100659.25;5072948;28;20160;-84
2023/12/14 04:37:47;;;;;;;6.50;4.93;;;;;;;10.62;86.03;100633.34;5062272;28;20070;-84
2023/12/14 04:40:14;;;;;;;8.30;5.72;;;;;;;10.74;85.97;100650.53;5053392;28;20062;-84
2023/12/14 04:42:39;;;;;;;7.55;5.22;;;;;;;10.51;85.93;100604.94;5069433;28;20044;-84
2023/12/14 04:45:06;;;;;;;7.20;5.45;;;;;;;10.50;85.59;100605.78;5068837;28;20078;-84
2023/12/14 04:47:31;;;;;;;;;;;;;;;10.80;85.78;100652.56;5060129;28;20040;-85
2023/12/14 04:49:57;;;;;;;5.35;4.40;;;;;;;10.50;85.77;100608.41;5052097;28;19961;-84
2023/12/14 04:52:23;;;;;;;7.57;5.15;;;;;;;10.71;86.20;100653.00;5068916;28;20419;-84
2023/12/14 04:54:49;;;;;;;7.35;5.00;;;;;;;10.49;85.73;100614.41;5067718;28;20067;-84
2023/12/14 04:57:15;;;;;;;7.32;5.20;;;;;;;10.68;85.83;100647.59;5026666;28;20039;-84
2023/12/14 04:59:55;;;;;;;7.88;5.22;;;;;;;10.51;86.13;100614.50;5059453;28;20037;-84
2023/12/14 05:02:20;;;;;;;7.20;5.35;;;;;;;10.39;85.92;100580.81;5047601;28;20407;-84
2023/12/14 05:04:46;;;;;;;8.40;5.30;;;;;;;10.77;86.01;100653.31;5039470;28;20543;-84
2023/12/14 05:07:12;;;;;;;7.25;5.18;;;;;;;10.54;85.75;100612.97;5065234;28;20041;-84
2023/12/14 05:09:37;;;;;;;7.65;5.28;;;;;;;10.50;85.77;100605.78;5053161;28;20964;-85
2023/12/14 05:12:04;;;;;;;7.20;5.20;;;;;;;10.48;86.10;100596.09;5069843;28;20479;-84
2023/12/14 05:14:29;;;;;;;7.07;4.80;;;;;;;10.48;86.07;100596.09;5046474;28;20393;-83
2023/12/14 05:16:55;;;;;;;6.95;4.90;;;;;;;10.54;86.31;100609.44;5041652;28;20035;-82
2023/12/14 05:19:21;;;;;;;6.53;4.80;;;;;;;10.58;86.39;100608.75;5060679;28;20410;-83
2023/12/14 05:21:47;;;;;;;6.57;4.63;;;;;;;10.51;86.13;100604.06;5068604;28;20515;-83
2023/12/14 05:24:13;;;;;;;6.38;4.55;;;;;;;10.18;86.41;100539.72;5056933;28;20031;-81
2023/12/14 05:26:39;;;;;;;6.80;4.90;;;;;;;10.79;86.03;100648.13;5048330;28;20036;-85
2023/12/14 05:29:04;;;;;;;6.88;4.88;;;;;;;10.73;85.94;100633.06;5064419;28;20454;-84
2023/12/14 05:31:30;;;;;;;6.53;4.95;;;;;;;10.65;85.81;100615.22;5049606;28;20028;-83
2023/12/14 05:33:56;;;;;;;6.57;4.88;;;;;;;10.67;86.00;100616.16;5044756;28;20056;-84
2023/12/14 05:36:21;;;;;;;7.15;5.05;;;;;;;10.48;85.89;100578.69;5041805;28;20021;-83
2023/12/14 05:38:47;;;;;;;6.97;5.05;;;;;;;10.69;86.05;100614.53;5043579;28;20452;-83
2023/12/14 05:41:13;;;;;;;6.25;4.50;;;;;;;10.80;85.97;100637.78;5065203;28;20560;-83
2023/12/14 05:43:38;;;;;;;6.80;4.80;;;;;;;10.46;85.90;100585.56;5065256;28;20451;-87
2023/12/14 05:46:04;;;;;;;6.18;4.40;;;;;;;10.43;86.05;100572.31;5049279;28;20056;-84
2023/12/14 05:48:30;;;;;;;6.53;4.60;;;;;;;10.71;86.04;100625.97;5050018;28;20435;-83
2023/12/14 05:50:56;;;;;;;7.68;5.03;;;;;;;10.62;85.95;100610.72;5057654;28;20111;-83
2023/12/14 05:53:22;;;;;;;6.25;4.70;;;;;;;10.83;86.12;100643.97;5070413;28;20032;-83
2023/12/14 05:55:48;;;;;;;7.28;4.82;;;;;;;10.85;85.70;100634.50;5068940;28;20032;-83
2023/12/14 05:58:13;;;;;;;5.35;4.57;;;;;;;10.70;85.77;100611.13;5053734;28;20040;-82
2023/12/14 06:00:40;;;;;;;6.13;4.28;;;;;;;10.80;86.29;100636.91;5052483;28;20491;-82
2023/12/14 06:03:06;;;;;;;7.40;5.10;;;;;;;10.85;85.95;100650.19;5058273;28;20028;-81
2023/12/14 06:05:31;;;;;;;5.80;4.72;;;;;;;10.77;86.04;100637.63;5057184;28;20253;-81
2023/12/14 06:07:57;;;;;;;7.18;4.47;;;;;;;10.85;85.96;100640.63;5066472;28;20044;-83
2023/12/14 06:10:23;;;;;;;7.03;4.60;;;;;;;10.80;86.29;100634.28;5071169;28;20025;-81
2023/12/14 06:12:48;;;;;;;7.60;5.03;;;;;;;10.85;85.74;100645.84;5035260;28;20037;-83
2023/12/14 06:15:14;;;;;;;6.28;4.47;;;;;;;10.75;85.63;100622.69;5056837;28;20085;-82
2023/12/14 06:17:42;;;;;;;6.57;4.43;;;;;;;10.78;85.80;100638.53;5058414;28;20039;-82
2023/12/14 06:20:08;;;;;;;6.85;4.50;;;;;;;10.90;85.59;100646.06;5065827;28;20036;-83
2023/12/14 06:22:36;;;;;;;6.70;4.50;;;;;;;10.45;85.75;100569.81;5069357;28;20032;-83
2023/12/14 06:25:03;;;;;;;6.55;4.55;;;;;;;10.62;86.02;100605.50;5051061;28;20024;-83
2023/12/14 06:27:29;;;;;;;6.57;4.72;;;;;;;10.63;85.78;100603.81;5067132;28;20016;-83
2023/12/14 06:29:54;;;;;;;6.50;4.45;;;;;;;10.88;85.81;100645.09;5067481;28;20047;-83
2023/12/14 06:32:20;;;;;;;6.45;4.57;;;;;;;10.62;86.23;100605.50;5065440;28;20058;-83
2023/12/14 06:34:46;;;;;;;5.03;4.03;;;;;;;10.91;85.72;100654.00;5050477;28;20436;-84
2023/12/14 06:37:11;;;;;;;6.45;4.50;;;;;;;10.56;85.93;100579.06;5064964;28;20567;-84
2023/12/14 06:39:37;;;;;;;5.78;4.13;;;;;;;10.73;85.93;100613.88;5063534;28;20115;-83
2023/12/14 06:42:03;;;;;;;6.55;4.22;;;;;;;10.93;85.76;100648.84;5067638;28;20576;-83
2023/12/14 06:44:30;;;;;;;5.63;4.15;;;;;;;10.71;85.72;100608.59;5051138;28;20029;-83
2023/12/14 06:46:58;;;;;;;6.30;4.45;;;;;;;10.87;85.83;100631.16;5072629;28;20032;-83
2023/12/14 06:49:24;;;;;;;6.15;4.20;;;;;;;10.85;85.79;100627.56;5060542;28;20111;-83
2023/12/14 06:51:50;;;;;;;5.63;4.00;;;;;;;10.90;85.56;100641.78;5045371;28;20024;-83
2023/12/14 06:54:16;;;;;;;5.70;4.18;;;;;;;10.84;85.81;100631.00;5064716;28;20488;-83
2023/12/14 06:56:41;;;;;;;5.32;4.00;;;;;;;10.97;85.71;100649.09;5063241;28;20028;-82
2023/12/14 06:59:07;;;;;;;5.88;4.40;;;;;;;10.84;85.80;100630.09;5045971;28;20103;-83
2023/12/14 07:01:33;;;;;;;6.88;4.57;;;;;;;10.80;85.78;100639.50;5070990;28;20036;-83
2023/12/14 07:03:58;;;;;;;5.55;4.30;;;;;;;10.99;85.63;100663.13;5064728;28;20120;-83
2023/12/14 07:06:24;;;;;;;4.93;3.92;;;;;;;10.92;85.67;100647.03;5067238;28;20119;-83
2023/12/14 07:08:49;;;;;;;7.78;4.45;;;;;;;10.94;85.31;100645.41;5063673;28;20035;-83
2023/12/14 07:11:15;;;;;;;5.80;4.05;;;;;;;10.84;85.75;100635.31;5064167;28;20073;-83
2023/12/14 07:13:41;;;;;;;5.93;4.30;;;;;;;10.96;85.69;100660.38;5040126;28;20025;-84
2023/12/14 07:16:08;;;;;;;5.40;4.20;;;;;;;11.02;85.73;100658.88;5044685;28;20028;-82
2023/12/14 07:18:35;;;;;;;5.95;4.47;;;;;;;10.92;85.47;100653.19;5061761;28;20140;-83
2023/12/14 07:21:02;;;;;;;6.40;4.60;;;;;;;11.03;85.31;100673.72;5083753;28;20024;-83
2023/12/14 07:23:28;;;;;;;5.57;4.18;;;;;;;10.94;85.36;100651.56;5028545;28;20113;-83
2023/12/14 07:26:06;;;;;;;6.85;4.13;;;;;;;11.01;85.94;100660.59;5068479;28;20486;-83
2023/12/14 07:28:56;;;;;;;5.20;4.20;;;;;;;11.03;85.88;100664.19;5057702;28;20032;-82
2023/12/14 07:31:22;;;;;;;5.03;3.75;;;;;;;10.76;85.60;100628.00;5048586;28;20045;-82
2023/12/14 07:33:48;;;;;;;6.40;4.25;;;;;;;10.90;85.54;100657.44;5069314;28;20035;-83
2023/12/14 07:36:13;;;;;;;6.07;4.68;;;;;;;11.05;85.42;100677.31;5057930;28;20419;-83
2023/12/14 07:38:39;;;;;;;5.95;4.30;;;;;;;10.96;85.55;100662.06;5069351;28;20036;-83
2023/12/14 07:41:05;;;;;;;6.00;4.30;;;;;;;11.07;85.50;100675.66;5050730;28;20037;-83
2023/12/14 07:43:32;;;;;;;5.22;3.80;;;;;;;10.99;85.39;100663.13;5053219;28;20059;-84
2023/12/14 07:45:58;;;;;;;5.90;4.28;;;;;;;11.07;85.36;100679.19;5068780;28;20028;-83
2023/12/14 07:48:24;;;;;;;6.82;4.72;;;;;;;10.76;85.43;100630.59;5066847;28;20106;-82
2023/12/14 07:50:52;;;;;;;6.28;3.97;;;;;;;11.00;85.32;100677.06;5060640;28;20499;-83
2023/12/14 07:53:18;;;;;;;5.50;4.28;;;;;;;10.77;85.73;100627.19;5033886;28;20407;-84
2023/12/14 07:55:43;;;;;;;5.65;4.05;;;;;;;10.68;85.34;100612.75;5068922;28;20027;-83
2023/12/14 07:58:10;;;;;;;5.30;3.97;;;;;;;11.07;85.15;100683.50;5069169;28;20037;-83
2023/12/14 08:00:35;;;;;;;6.70;4.63;;;;;;;10.91;85.07;100651.38;5066163;28;20062;-83
2023/12/14 08:03:01;;;;;;;6.38;4.40;;;;;;;10.92;85.00;100650.59;5035553;28;20024;-84
2023/12/14 08:05:26;;;;;;;5.85;4.32;;;;;;;10.96;84.88;100655.16;5066428;28;20210;-83
2023/12/14 08:07:52;;;;;;;5.25;4.00;;;;;;;11.02;85.28;100659.75;5046065;28;20037;-83
2023/12/14 08:10:19;;;;;;;6.80;4.55;;;;;;;11.08;85.36;100672.25;5066967;28;20093;-83
2023/12/14 08:12:44;;;;;;;6.00;4.50;;;;;;;11.06;85.01;100672.16;5050617;28;20036;-83
2023/12/14 08:15:11;;;;;;;5.65;4.35;;;;;;;10.96;85.30;100651.63;5065755;28;20082;-84
2023/12/14 08:17:37;;;;;;;6.82;4.43;;;;;;;11.13;84.87;100666.44;5050402;28;20082;-84
2023/12/14 08:20:08;;;;;;;5.13;3.92;;;;;;;11.15;85.15;100659.56;5050914;28;20028;-82
2023/12/14 08:22:34;;;;;;;5.00;3.90;;;;;;;10.78;84.91;100605.47;5060608;28;20474;-83
2023/12/14 08:25:00;;;;;;;4.57;3.97;;;;;;;11.04;84.82;100647.66;5050437;28;20028;-83
2023/12/14 08:27:26;;;;;;;4.88;4.03;;;;;;;11.04;84.61;100655.50;5045123;28;20044;-83
2023/12/14 08:29:52;;;;;;;7.30;4.65;;;;;;;11.14;84.80;100664.72;5065441;28;20047;-83
2023/12/14 08:32:18;;;;;;;5.55;4.32;;;;;;;11.15;85.19;100672.66;5077405;28;20703;-82
2023/12/14 08:34:44;;;;;;;7.03;4.88;;;;;;;11.11;85.28;100655.03;5054758;28;20032;-82
2023/12/14 08:37:10;;;;;;;6.50;4.45;;;;;;;10.99;85.08;100626.53;5062962;28;20108;-82
2023/12/14 08:39:36;;;;;;;6.15;4.25;;;;;;;11.16;85.11;100661.34;5077761;28;20038;-83
2023/12/14 08:42:03;;;;;;;5.00;4.05;;;;;;;11.13;84.84;100655.06;5069388;28;20059;-83
2023/12/14 08:44:28;;;;;;;7.07;4.80;;;;;;;11.03;85.00;100638.06;5068275;28;20039;-83
2023/12/14 08:46:54;;;;;;;5.72;4.30;;;;;;;11.14;85.06;100652.53;5051215;28;20032;-83
2023/12/14 08:49:20;;;;;;;6.07;4.57;;;;;;;11.09;84.92;100638.38;5050144;28;20388;-83
2023/12/14 08:51:45;;;;;;;5.90;4.00;;;;;;;11.21;85.00;100661.56;5068940;28;20034;-83
2023/12/14 08:54:11;;;;;;;6.57;4.60;;;;;;;11.23;84.63;100657.31;5067714;28;20392;-83
2023/12/14 08:56:37;;;;;;;6.07;4.70;;;;;;;11.20;84.68;100644.13;5051905;28;20051;-82
2023/12/14 08:59:03;;;;;;;6.13;4.38;;;;;;;10.99;84.01;100609.97;5067727;28;20089;-82
2023/12/14 09:01:29;;;;;;;7.85;4.40;;;;;;;11.06;84.23;100629.47;5069547;28;20079;-83
2023/12/14 09:03:55;;;;;;;6.90;4.47;;;;;;;11.17;84.80;100641.34;5056676;28;20582;-82
2023/12/14 09:06:20;;;;;;;6.72;4.50;;;;;;;11.21;84.24;100640.66;5075651;28;20033;-82
2023/12/14 09:08:46;;;;;;;6.45;4.13;;;;;;;11.21;84.67;100644.16;5073345;28;20415;-83
2023/12/14 09:11:12;;;;;;;7.30;5.00;;;;;;;11.20;84.56;100642.38;5052005;28;20162;-83
2023/12/14 09:13:38;;;;;;;6.30;4.72;;;;;;;11.26;84.09;100648.72;5046759;28;20095;-83
2023/12/14 09:16:04;;;;;;;6.70;4.65;;;;;;;11.24;84.22;100651.28;5046654;28;20050;-83
2023/12/14 09:18:40;;;;;;;6.32;4.20;;;;;;;11.19;84.32;100637.06;5067239;28;20036;-82
2023/12/14 09:21:06;;;;;;;7.10;4.60;;;;;;;11.19;84.67;100618.78;5060316;28;20106;-83
2023/12/14 09:23:32;;;;;;;6.75;4.70;;;;;;;11.30;84.43;100624.53;5066962;28;20087;-82
2023/12/14 09:25:58;;;;;;;9.18;4.35;;;;;;;11.21;84.63;100618.03;5041654;28;20029;-82
2023/12/14 09:28:25;;;;;;;6.13;4.65;;;;;;;11.05;84.46;100573.69;5073133;28;20031;-81
2023/12/14 09:30:51;;;;;;;7.82;5.10;;;;;;;11.29;84.73;100621.03;5072808;28;20064;-83
2023/12/14 09:33:17;;;;;;;6.88;4.70;;;;;;;11.27;84.81;100614.84;5073327;28;20599;-82
2023/12/14 09:35:43;;;;;;;8.35;4.72;;;;;;;11.27;84.72;100608.72;5051611;28;20495;-83
2023/12/14 09:38:09;;;;;;;9.07;4.78;;;;;;;11.27;85.57;100599.16;5053391;28;20033;-82
2023/12/14 09:40:35;;;;;;;12.63;5.43;;;;;;;11.34;86.84;100621.25;5080903;28;20043;-82
2023/12/14 09:43:01;;;;;;;7.53;4.97;;;;;;;11.35;85.74;100613.50;5071230;28;20036;-82
2023/12/14 09:45:30;;;;;;;7.75;4.70;;;;;;;11.30;86.17;100598.38;5072048;28;20025;-83
2023/12/14 09:48:00;;;;;;;7.30;4.90;;;;;;;11.35;86.15;100608.25;5072537;28;20433;-82
2023/12/14 09:50:26;;;;;;;7.22;4.80;;;;;;;11.39;86.68;100604.09;5046005;28;20078;-82
2023/12/14 09:52:53;;;;;;;6.90;4.88;;;;;;;11.21;86.60;100567.47;5041120;28;20415;-82
2023/12/14 09:55:18;;;;;;;9.80;5.22;;;;;;;11.41;86.74;100594.59;5061839;28;20028;-82
2023/12/14 09:57:45;;;;;;;10.68;4.75;;;;;;;11.41;86.79;100582.41;5073576;28;20033;-82
2023/12/14 10:00:14;;;;;;;7.47;5.22;;;;;;;11.12;88.11;100544.41;5056715;28;20032;-82
2023/12/14 10:03:17;;;;;;;9.18;5.20;;;;;;;11.45;87.59;100598.22;5051107;28;20495;-83
2023/12/14 10:05:43;;;;;;;10.68;4.75;;;;;;;11.11;87.48;100554.78;5057690;28;20033;-82
2023/12/14 10:08:08;;;;;;;7.78;4.78;;;;;;;11.40;87.23;100588.44;5071937;28;20039;-82
2023/12/14 10:10:34;;;;;;;7.65;4.60;;;;;;;11.43;87.60;100600.78;5084124;28;20592;-82
2023/12/14 10:12:59;;;;;;;8.80;5.03;;;;;;;11.47;86.97;100589.66;5068089;28;20024;-81
2023/12/14 10:15:26;;;;;;;6.63;4.53;;;;;;;11.24;87.36;100541.50;5054006;28;20036;-83
2023/12/14 10:17:54;;;;;;;9.32;4.93;;;;;;;11.45;87.11;100570.38;5055873;28;20028;-83
2023/12/14 10:20:23;;;;;;;8.30;5.32;;;;;;;11.31;87.87;100545.31;5048131;28;20048;-83
2023/12/14 10:22:49;;;;;;;8.82;5.28;;;;;;;11.33;88.79;100565.47;5089433;28;20493;-84
2023/12/14 10:25:15;;;;;;;11.70;5.53;;;;;;;11.46;88.13;100584.34;5054662;28;20553;-83
2023/12/14 10:27:41;;;;;;;8.52;5.18;;;;;;;11.38;88.09;100569.19;5052504;28;20040;-82
2023/12/14 10:30:12;;;;;;;8.15;4.72;;;;;;;11.41;87.46;100566.72;5050592;28;20102;-83
2023/12/14 10:32:43;;;;;;;9.05;5.03;;;;;;;11.33;87.97;100534.09;5058530;28;20060;-83
2023/12/14 10:35:09;;;;;;;7.53;4.78;;;;;;;11.24;88.34;100522.28;5050334;28;20499;-82
2023/12/14 10:37:41;;;;;;;7.30;5.18;;;;;;;11.54;87.99;100583.88;5047609;28;20041;-83
2023/12/14 10:40:12;;;;;;;9.35;5.05;;;;;;;11.46;87.42;100558.19;5049658;28;20115;-84
2023/12/14 10:42:40;;;;;;;8.18;5.22;;;;;;;11.21;88.33;100521.31;5049669;28;20024;-81
2023/12/14 10:45:06;;;;;;;8.68;5.50;;;;;;;11.57;88.64;100575.28;5043517;28;20036;-81
2023/12/14 10:47:33;;;;;;;7.07;5.00;;;;;;;11.52;88.65;100563.72;5057548;28;20033;-80
2023/12/14 10:50:00;;;;;;;7.70;4.82;;;;;;;11.57;87.72;100567.44;5059405;28;20058;-80
2023/12/14 10:52:28;;;;;;;9.35;4.55;;;;;;;11.37;87.11;100515.13;5056229;28;20025;-82
2023/12/14 10:55:02;;;;;;;9.95;5.38;;;;;;;11.50;88.62;100552.28;5068036;28;20388;-82
2023/12/14 10:57:28;;;;;;;7.47;4.82;;;;;;;11.60;89.02;100565.88;5060835;28;20052;-82
2023/12/14 10:59:59;;;;;;;11.30;5.30;;;;;;;11.51;89.81;100543.59;5062714;28;20259;-82
2023/12/14 11:02:25;;;;;;;9.73;4.88;;;;;;;11.58;89.85;100556.16;5062049;28;20028;-82
2023/12/14 11:04:55;;;;;;;8.52;4.90;;;;;;;11.57;89.16;100555.25;5061739;28;20035;-82
2023/12/14 11:07:47;;;;;;;10.23;4.88;;;;;;;11.67;88.75;100558.31;5068679;28;20025;-82
2023/12/14 11:10:13;;;;;;;10.50;5.20;;;;;;;11.70;89.02;100554.09;5059400;28;20108;-82
2023/12/14 11:12:51;;;;;;;11.32;5.70;;;;;;;11.71;89.29;100547.16;5052614;28;20028;-83
2023/12/14 11:15:20;;;;;;;13.30;5.65;;;;;;;11.68;89.62;100552.25;5060344;28;20029;-83
2023/12/14 11:18:08;;;;;;;11.55;4.88;;;;;;;11.75;89.37;100562.19;5052922;28;20037;-80
2023/12/14 11:20:46;;;;;;;6.95;5.07;;;;;;;11.75;90.47;100570.03;5054599;28;20047;-83